createdAt,value
2022-12-15T00:04:41.071Z,6.93
2022-12-15T00:10:03.307Z,8.90
2022-12-15T00:15:25.091Z,8.73
2022-12-15T00:20:45.732Z,8.33
2022-12-15T00:26:08.126Z,8.27
2022-12-15T00:31:28.972Z,9.20
2022-12-15T00:36:50.109Z,7.17
2022-12-15T00:41:55.053Z,8.40
2022-12-15T00:46:58.767Z,8.20
2022-12-15T00:52:19.630Z,9.50
2022-12-15T00:57:42.092Z,8.60
2022-12-15T01:03:03.133Z,10.47
2022-12-15T01:08:24.177Z,11.67
2022-12-15T01:13:46.425Z,10.43
2022-12-15T01:19:10.795Z,11.67
2022-12-15T01:24:14.344Z,10.27
2022-12-15T01:29:19.271Z,10.17
2022-12-15T01:34:23.154Z,10.93
2022-12-15T01:39:46.801Z,10.70
2022-12-15T01:44:55.267Z,12.00
2022-12-15T01:49:58.916Z,10.20
2022-12-15T01:55:02.648Z,9.73
2022-12-15T02:00:10.038Z,9.60
2022-12-15T02:05:13.677Z,8.70
2022-12-15T02:10:17.401Z,10.80
2022-12-15T02:15:29.046Z,9.77
2022-12-15T02:20:47.740Z,10.90
2022-12-15T02:26:19.243Z,11.40
2022-12-15T02:31:49.843Z,11.33
2022-12-15T02:36:59.325Z,10.50
2022-12-15T02:42:02.753Z,10.33
2022-12-15T02:47:33.814Z,12.23
2022-12-15T02:52:51.799Z,12.27
2022-12-15T02:57:59.846Z,11.40
2022-12-15T03:03:05.704Z,10.93
2022-12-15T03:08:09.516Z,13.90
2022-12-15T03:13:14.338Z,12.83
2022-12-15T03:18:19.555Z,14.23
2022-12-15T03:23:23.341Z,17.27
2022-12-15T03:28:26.927Z,22.20
2022-12-15T03:33:34.057Z,20.07
2022-12-15T03:38:37.831Z,24.03
2022-12-15T03:43:41.367Z,17.50
2022-12-15T03:48:46.282Z,16.23
2022-12-15T03:53:49.710Z,14.80
2022-12-15T03:58:53.118Z,14.27
2022-12-15T04:04:00.849Z,15.50
2022-12-15T04:09:04.685Z,12.93
2022-12-15T04:14:08.246Z,13.53
2022-12-15T04:19:30.414Z,13.67
2022-12-15T04:24:51.177Z,14.70
2022-12-15T04:30:12.199Z,13.70
2022-12-15T04:35:34.460Z,10.67
2022-12-15T04:40:55.767Z,11.75
2022-12-15T04:46:16.660Z,12.97
2022-12-15T04:51:38.846Z,11.10
2022-12-15T04:56:59.599Z,11.00
2022-12-15T05:02:20.546Z,11.73
2022-12-15T05:07:43.371Z,9.73
2022-12-15T05:13:03.906Z,11.50
2022-12-15T05:18:24.706Z,11.60
2022-12-15T05:23:47.066Z,11.93
2022-12-15T05:29:08.120Z,12.90
2022-12-15T05:34:11.531Z,11.17
2022-12-15T05:39:16.541Z,11.18
2022-12-15T05:44:20.564Z,11.00
2022-12-15T05:49:24.654Z,11.18
2022-12-15T05:54:29.628Z,10.47
2022-12-15T05:59:33.162Z,9.60
2022-12-15T06:04:36.903Z,13.17
2022-12-15T06:09:42.040Z,10.43
2022-12-15T06:14:45.694Z,10.83
2022-12-15T06:19:49.212Z,11.53
2022-12-15T06:24:54.134Z,11.17
2022-12-15T06:29:57.906Z,13.97
2022-12-15T06:35:02.153Z,11.63
2022-12-15T06:40:09.603Z,14.93
2022-12-15T06:45:13.203Z,12.93
2022-12-15T06:50:16.762Z,13.10
2022-12-15T06:55:21.679Z,11.90
2022-12-15T07:00:25.386Z,13.23
2022-12-15T07:05:28.955Z,12.50
2022-12-15T07:10:34.040Z,13.27
2022-12-15T07:15:37.717Z,13.57
2022-12-15T07:20:41.348Z,11.30
2022-12-15T07:25:46.354Z,12.07
2022-12-15T07:30:49.892Z,12.40
2022-12-15T07:35:57.019Z,11.00
2022-12-15T07:41:04.893Z,8.80
2022-12-15T07:46:09.283Z,10.03
2022-12-15T07:51:19.360Z,11.70
2022-12-15T07:56:25.463Z,14.20
2022-12-15T08:01:29.120Z,12.37
2022-12-15T08:06:32.547Z,12.83
2022-12-15T08:11:37.809Z,12.67
2022-12-15T08:16:41.408Z,7.80
2022-12-15T08:21:46.905Z,10.33
2022-12-15T08:26:53.138Z,10.63
2022-12-15T08:31:56.659Z,9.77
2022-12-15T08:37:00.270Z,12.77
2022-12-15T08:42:05.391Z,11.60
2022-12-15T08:47:09.007Z,13.13
2022-12-15T08:52:13.294Z,14.03
2022-12-15T08:57:18.328Z,10.50
2022-12-15T09:02:22.483Z,11.47
2022-12-15T09:07:26.202Z,10.20
2022-12-15T09:12:31.140Z,11.97
2022-12-15T09:17:34.609Z,9.07
2022-12-15T09:22:38.354Z,12.03
2022-12-15T09:27:43.432Z,9.27
2022-12-15T09:32:47.176Z,10.87
2022-12-15T09:37:51.997Z,10.90
2022-12-15T09:43:25.659Z,11.97
2022-12-15T09:48:25.103Z,9.57
2022-12-15T09:53:54.159Z,11.60
2022-12-15T09:59:01.493Z,11.37
2022-12-15T10:04:12.825Z,14.63
2022-12-15T10:09:21.667Z,11.77
2022-12-15T10:14:32.329Z,15.53
2022-12-15T10:19:43.273Z,11.47
2022-12-15T10:30:15.268Z,14.53
2022-12-15T10:35:22.352Z,10.87
2022-12-15T10:40:50.224Z,13.17
2022-12-15T10:46:05.719Z,14.83
2022-12-15T10:56:26.120Z,12.13
2022-12-15T11:01:36.545Z,12.63
2022-12-15T11:06:44.038Z,12.87
2022-12-15T11:12:11.966Z,19.63
2022-12-15T11:17:19.663Z,14.70
2022-12-15T11:22:32.904Z,12.97
2022-12-15T11:27:39.590Z,13.97
2022-12-15T11:32:49.103Z,15.07
2022-12-15T11:37:58.079Z,13.60
2022-12-15T11:43:21.112Z,14.93
2022-12-15T11:48:33.868Z,13.97
2022-12-15T11:54:02.088Z,20.40
2022-12-15T11:59:22.503Z,19.13
2022-12-15T12:04:31.868Z,19.87
2022-12-15T12:09:38.167Z,17.10
2022-12-15T12:14:51.630Z,17.60
2022-12-15T12:20:03.864Z,18.30
2022-12-15T12:25:16.128Z,17.88
2022-12-15T12:30:21.656Z,17.57
2022-12-15T12:35:33.612Z,15.07
2022-12-15T12:40:53.696Z,18.07
2022-12-15T12:46:00.316Z,22.80
2022-12-15T12:51:28.606Z,17.10
2022-12-15T12:56:41.729Z,17.60
2022-12-15T13:01:45.304Z,18.40
2022-12-15T13:07:05.888Z,18.80
2022-12-15T13:12:53.685Z,19.67
2022-12-15T13:23:44.214Z,18.90
2022-12-15T13:28:53.414Z,16.73
2022-12-15T13:34:13.805Z,12.13
2022-12-15T13:39:50.199Z,12.43
2022-12-15T13:44:58.998Z,15.77
2022-12-15T13:50:08.709Z,12.83
2022-12-15T13:55:27.247Z,15.57
2022-12-15T14:00:33.863Z,15.20
2022-12-15T14:05:39.161Z,16.20
2022-12-15T14:10:44.855Z,17.53
2022-12-15T14:15:56.731Z,13.37
2022-12-15T14:21:01.711Z,12.73
2022-12-15T14:26:07.712Z,15.70
2022-12-15T14:31:18.539Z,13.23
2022-12-15T14:36:22.699Z,12.43
2022-12-15T14:41:28.972Z,13.18
2022-12-15T14:46:34.688Z,11.90
2022-12-15T14:51:44.279Z,12.80
2022-12-15T14:57:00.352Z,16.83
2022-12-15T15:02:14.765Z,20.37
2022-12-15T15:07:20.167Z,17.67
2022-12-15T15:12:25.077Z,15.83
2022-12-15T15:17:39.022Z,18.93
2022-12-15T15:22:44.272Z,17.30
2022-12-15T15:27:47.907Z,13.70
2022-12-15T15:32:57.440Z,16.10
2022-12-15T15:38:06.226Z,18.90
2022-12-15T15:43:13.115Z,17.33
2022-12-15T15:48:22.889Z,18.23
2022-12-15T15:53:26.741Z,21.93
2022-12-15T15:58:30.526Z,13.75
2022-12-15T16:03:36.264Z,19.27
2022-12-15T16:08:39.807Z,27.87
2022-12-15T16:13:43.355Z,14.50
2022-12-15T16:18:48.360Z,17.63
2022-12-15T16:23:51.988Z,17.27
2022-12-15T16:28:55.483Z,19.20
2022-12-15T16:34:00.629Z,18.47
2022-12-15T16:39:04.284Z,18.77
2022-12-15T16:44:12.830Z,19.47
2022-12-15T16:49:17.748Z,18.27
2022-12-15T16:54:24.492Z,18.33
2022-12-15T16:59:33.476Z,21.83
2022-12-15T17:04:39.468Z,22.53
2022-12-15T17:09:43.185Z,13.77
2022-12-15T17:14:47.250Z,14.33
2022-12-15T17:20:27.261Z,14.75
2022-12-15T17:25:27.174Z,20.93
2022-12-15T17:30:41.357Z,20.07
2022-12-15T17:35:47.280Z,21.70
2022-12-15T17:40:52.149Z,17.63
2022-12-15T17:45:56.027Z,16.43
2022-12-15T17:51:01.001Z,23.88
2022-12-15T17:56:04.927Z,19.13
2022-12-15T18:01:10.863Z,23.98
2022-12-15T18:06:16.715Z,19.07
2022-12-15T18:11:20.708Z,19.33
2022-12-15T18:16:24.177Z,27.73
2022-12-15T18:21:29.006Z,20.93
2022-12-15T18:26:38.091Z,18.30
2022-12-15T18:31:43.251Z,14.93
2022-12-15T18:36:48.076Z,19.00
2022-12-15T18:41:51.668Z,23.87
2022-12-15T18:46:56.006Z,20.03
2022-12-15T18:52:00.919Z,20.50
2022-12-15T18:57:04.462Z,20.37
2022-12-15T19:02:08.964Z,24.50
2022-12-15T19:12:20.889Z,17.30
2022-12-15T19:17:42.623Z,16.80
2022-12-15T19:22:49.004Z,22.77
2022-12-15T19:27:52.740Z,22.30
2022-12-15T19:32:56.777Z,19.93
2022-12-15T19:38:04.314Z,21.50
2022-12-15T19:43:07.839Z,22.20
2022-12-15T19:48:12.139Z,16.47
2022-12-15T19:53:22.878Z,22.58
2022-12-15T19:58:30.035Z,22.70
2022-12-15T20:03:34.531Z,23.93
2022-12-15T20:13:45.724Z,21.40
2022-12-15T20:18:50.948Z,23.90
2022-12-15T20:24:00.540Z,16.50
2022-12-15T20:29:04.855Z,16.87
2022-12-15T20:34:08.377Z,22.70
2022-12-15T20:39:21.684Z,24.20
2022-12-15T20:44:26.055Z,18.17
2022-12-15T20:49:29.686Z,25.85
2022-12-15T20:54:34.519Z,25.33
2022-12-15T20:59:37.974Z,27.70
2022-12-15T21:04:41.506Z,25.13
2022-12-15T21:09:46.278Z,23.73
2022-12-15T21:14:50.322Z,24.30
2022-12-15T21:19:54.924Z,26.52
2022-12-15T21:30:07.467Z,26.77
2022-12-15T21:35:14.391Z,23.70
2022-12-15T21:40:21.376Z,28.47
2022-12-15T21:45:26.828Z,23.30
2022-12-15T21:50:30.246Z,23.83
2022-12-15T21:55:35.374Z,25.40
2022-12-15T22:00:45.317Z,24.97
2022-12-15T22:05:48.980Z,25.57
2022-12-15T22:10:54.047Z,28.80
2022-12-15T22:15:58.267Z,23.17
2022-12-15T22:21:01.703Z,27.60
2022-12-15T22:26:06.693Z,23.77
2022-12-15T22:31:11.798Z,26.40
2022-12-15T22:36:15.166Z,25.07
2022-12-15T22:41:23.275Z,25.53
2022-12-15T22:46:27.078Z,27.07
2022-12-15T22:51:30.517Z,25.03
2022-12-15T22:56:40.724Z,28.77
2022-12-15T23:01:45.070Z,22.37
2022-12-15T23:06:48.775Z,26.00
2022-12-15T23:11:53.968Z,25.80
2022-12-15T23:16:58.525Z,22.37
2022-12-15T23:22:02.028Z,23.60
2022-12-15T23:27:10.658Z,20.63
2022-12-15T23:32:14.134Z,26.43
2022-12-15T23:37:17.578Z,24.60
2022-12-15T23:42:22.290Z,24.87
2022-12-15T23:52:30.112Z,26.93
